Agia Marina — SX5375 — position and weather

sailwx.info

Track history (hours):
 
Tides and Currents Weather Stations Pressure Air Temp Water Temp Dewpoint Dewpoint Depression Visibility Wind Speed Wind Dir Waves Ship Positions

Agia Marina

Last reported at 2015-Apr-18 14:30 UTC. Time now 2015-Apr-19 10:58 UTC.
Position N 39°19' E 024°34'.

Length 59 m; draft 2.5 m.

Type: Cargo ship. MMSI: 237042500.

Date/timePositionNaut miles runAvg speedWind from/ knotsBaromVisibWave heightAir tempDewpointWater temp
2015-Apr-18 14:30N 39°19' E 024°34'  
2015-Apr-16 06:33N 37°53' E 023°24'23 3.7
2015-Apr-16 00:20N 37°38' E 023°46'5 6.2
2015-Apr-15 23:33N 37°41' E 023°41'7 6.8
2015-Apr-15 22:33N 37°47' E 023°37'6 6.4
2015-Apr-15 21:33N 37°50' E 023°30'8 5.8
2015-Apr-15 20:12N 37°56' E 023°24'3 5.4
2015-Apr-15 19:33N 37°59' E 023°25'7 6.6
2015-Apr-15 18:33N 38°01' E 023°33'2 0.1
2015-Apr-15 00:33N 38°02' E 023°36'0 0.0
2015-Apr-14 23:33N 38°02' E 023°36'0 0.0
2015-Apr-14 22:33N 38°02' E 023°36'0 0.0
2015-Apr-14 21:33N 38°02' E 023°36'0 0.0
2015-Apr-14 20:33N 38°02' E 023°36'0 0.0
2015-Apr-14 19:33N 38°02' E 023°36'0 0.0
2015-Apr-14 18:33N 38°02' E 023°36'0 0.0
2015-Apr-14 17:33N 38°02' E 023°36'0 0.0
2015-Apr-14 16:33N 38°02' E 023°36'0 0.0
2015-Apr-14 15:33N 38°02' E 023°36'0 0.0
2015-Apr-14 14:33N 38°02' E 023°36'0 0.0
2015-Apr-14 13:33N 38°02' E 023°36'0 0.0
2015-Apr-14 12:33N 38°02' E 023°36'0 0.0
2015-Apr-14 11:33N 38°02' E 023°36'0 0.0
2015-Apr-14 10:33N 38°02' E 023°36'0 0.0
2015-Apr-14 09:33N 38°02' E 023°36'0 0.0
2015-Apr-14 08:33N 38°02' E 023°36'0 0.0
2015-Apr-14 07:33N 38°02' E 023°36'0 0.0
2015-Apr-14 06:32N 38°02' E 023°36'0 0.0
2015-Apr-14 05:33N 38°02' E 023°36'0 0.0
2015-Apr-14 04:33N 38°02' E 023°36'0 0.0
2015-Apr-14 03:32N 38°02' E 023°36'0 0.0
2015-Apr-14 02:33N 38°02' E 023°36'0 0.0
2015-Apr-14 01:33N 38°02' E 023°36'0 0.0
2015-Apr-14 00:33N 38°02' E 023°36'0 0.0
2015-Apr-13 23:33N 38°02' E 023°36'0 0.0
2015-Apr-13 22:30N 38°02' E 023°36'0 0.0
2015-Apr-13 21:31N 38°02' E 023°36'0 0.0
2015-Apr-13 20:33N 38°02' E 023°36'0 0.0
2015-Apr-13 19:33N 38°02' E 023°36'0 0.0
2015-Apr-13 18:33N 38°02' E 023°36'0 0.0
2015-Apr-13 17:33N 38°02' E 023°36'0 0.0
2015-Apr-13 16:33N 38°02' E 023°36'0 0.0
2015-Apr-13 15:33N 38°02' E 023°36'0 0.0
2015-Apr-13 14:33N 38°02' E 023°36'0 0.0
2015-Apr-13 13:33N 38°02' E 023°36'0 0.0
2015-Apr-13 12:33N 38°02' E 023°36'0 0.0
2015-Apr-13 11:33N 38°02' E 023°36'0 0.0
2015-Apr-13 10:33N 38°02' E 023°36'0 0.0
2015-Apr-13 09:33N 38°02' E 023°36'0 0.0
2015-Apr-13 08:33N 38°02' E 023°36'0 0.0
2015-Apr-13 07:33N 38°02' E 023°36'0 0.0
2015-Apr-13 06:33N 38°02' E 023°36'0 0.0
2015-Apr-13 05:33N 38°02' E 023°36'0 0.0
2015-Apr-13 04:33N 38°02' E 023°36'0 0.0
2015-Apr-13 03:33N 38°02' E 023°36'0 0.0
2015-Apr-13 02:33N 38°02' E 023°36'0 0.0
2015-Apr-13 01:33N 38°02' E 023°36'0 0.0
2015-Apr-13 00:32N 38°02' E 023°36'0 0.0
2015-Apr-12 23:33N 38°02' E 023°36'0 0.0
2015-Apr-12 22:33N 38°02' E 023°36'0 0.0
2015-Apr-12 21:33N 38°02' E 023°36'0 0.0
2015-Apr-12 20:33N 38°02' E 023°36'0 0.0
2015-Apr-12 19:33N 38°02' E 023°36'0 0.0
2015-Apr-12 18:33N 38°02' E 023°36'0 0.0
2015-Apr-12 17:33N 38°02' E 023°36'0 0.0
2015-Apr-12 16:33N 38°02' E 023°36'0 0.0
2015-Apr-12 15:33N 38°02' E 023°36'0 0.0
2015-Apr-12 14:33N 38°02' E 023°36'0 0.0
2015-Apr-12 13:33N 38°02' E 023°36'0 0.0
2015-Apr-12 12:33N 38°02' E 023°36'0 0.0
2015-Apr-12 11:33N 38°02' E 023°36'0 0.0
2015-Apr-12 10:33N 38°02' E 023°36'0 0.0
2015-Apr-12 09:33N 38°02' E 023°36'0 0.0
2015-Apr-12 08:33N 38°02' E 023°36'0 0.0
2015-Apr-12 07:32N 38°02' E 023°36'0 0.0
2015-Apr-12 06:33N 38°02' E 023°36'0 0.0
2015-Apr-12 05:33N 38°02' E 023°36'0 0.0
2015-Apr-12 04:33N 38°02' E 023°36'0 0.0
2015-Apr-12 03:33N 38°02' E 023°36'0 0.0
2015-Apr-12 02:33N 38°02' E 023°36'0 0.0
2015-Apr-12 01:33N 38°02' E 023°36'0 0.0
2015-Apr-12 00:33N 38°02' E 023°36'0 0.0
2015-Apr-11 23:32N 38°02' E 023°36'0 0.0
2015-Apr-11 22:33N 38°02' E 023°36'0 0.0
2015-Apr-11 21:33N 38°02' E 023°36'0 0.0
2015-Apr-11 20:33N 38°02' E 023°36'0 0.0
2015-Apr-11 19:33N 38°02' E 023°36'0 0.0
2015-Apr-11 18:33N 38°02' E 023°36'0 0.0
2015-Apr-11 17:33N 38°02' E 023°36'0 0.0
2015-Apr-11 16:32N 38°02' E 023°36'0 0.0
2015-Apr-11 15:33N 38°02' E 023°36'0 0.0
2015-Apr-11 14:32N 38°02' E 023°36'0 0.0
2015-Apr-11 13:33N 38°02' E 023°36'0 0.0
2015-Apr-11 12:32N 38°02' E 023°36'0 0.0
2015-Apr-11 11:33N 38°02' E 023°36'0 0.0
2015-Apr-11 10:33N 38°02' E 023°36'0 0.0
2015-Apr-11 09:33N 38°02' E 023°36'0 0.0
2015-Apr-11 08:33N 38°02' E 023°36'0 0.0
2015-Apr-11 07:33N 38°02' E 023°36'0 0.0
2015-Apr-11 06:33N 38°02' E 023°36'0 0.0
2015-Apr-11 05:33N 38°02' E 023°36'0 0.0
2015-Apr-11 04:33N 38°02' E 023°36'0 0.0
2015-Apr-11 03:33N 38°02' E 023°36'0 0.0
2015-Apr-11 02:33N 38°02' E 023°36'0 0.0
2015-Apr-11 01:33N 38°02' E 023°36'0 0.0
2015-Apr-11 00:33N 38°02' E 023°36'0 0.0
2015-Apr-10 23:33N 38°02' E 023°36'0 0.0
2015-Apr-10 22:33N 38°02' E 023°36'0 0.0
2015-Apr-10 21:33N 38°02' E 023°36'0 0.0
2015-Apr-10 20:33N 38°02' E 023°36'0 0.0
2015-Apr-10 19:33N 38°02' E 023°36'0 0.0
2015-Apr-10 18:33N 38°02' E 023°36'0 0.0
2015-Apr-10 17:32N 38°02' E 023°36'0 0.0
2015-Apr-10 16:33N 38°02' E 023°36'0 0.0
2015-Apr-10 15:33N 38°02' E 023°36'0 0.0
2015-Apr-10 14:33N 38°02' E 023°36'0 0.0
2015-Apr-10 13:33N 38°02' E 023°36'0 0.0
2015-Apr-10 12:33N 38°02' E 023°36'0 0.0
2015-Apr-10 11:33N 38°02' E 023°36'0 0.0
2015-Apr-10 10:33N 38°02' E 023°36'0 0.0
2015-Apr-10 09:32N 38°02' E 023°36'0 0.0
2015-Apr-10 08:33N 38°02' E 023°36'0 0.0
2015-Apr-10 07:33N 38°02' E 023°36'0 0.0
2015-Apr-10 06:33N 38°02' E 023°36'0 0.0
2015-Apr-10 05:33N 38°02' E 023°36'0 0.0
2015-Apr-10 04:33N 38°02' E 023°36'0 0.0
2015-Apr-10 03:33N 38°02' E 023°36'0 0.0
2015-Apr-10 02:33N 38°02' E 023°36'0 0.0
2015-Apr-10 01:33N 38°02' E 023°36'0 0.0
2015-Apr-10 00:33N 38°02' E 023°36'0 0.0
2015-Apr-09 23:33N 38°02' E 023°36'0 0.0
2015-Apr-09 22:33N 38°02' E 023°36'0 0.0
2015-Apr-09 21:33N 38°02' E 023°36'0 0.0
2015-Apr-09 20:33N 38°02' E 023°36'0 0.0
2015-Apr-09 19:33N 38°02' E 023°36'0 0.0
2015-Apr-09 18:33N 38°02' E 023°36'0 0.0
2015-Apr-09 17:33N 38°02' E 023°36'0 0.0
2015-Apr-09 16:33N 38°02' E 023°36'0 0.0
2015-Apr-09 15:33N 38°02' E 023°36'0 0.0
2015-Apr-09 14:33N 38°02' E 023°36'0 0.0
2015-Apr-09 13:33N 38°02' E 023°36'0 0.0
2015-Apr-09 12:33N 38°02' E 023°36'0 0.0
2015-Apr-09 11:33N 38°02' E 023°36'0 0.0
2015-Apr-09 10:33N 38°02' E 023°36'0 0.0
2015-Apr-09 09:30N 38°02' E 023°36'0 0.0
2015-Apr-09 08:32N 38°02' E 023°36'0 0.0
2015-Apr-09 07:33N 38°02' E 023°36'0 0.0
2015-Apr-09 06:33N 38°02' E 023°36'0 0.0
2015-Apr-09 05:33N 38°02' E 023°36'0 0.0
2015-Apr-09 04:33N 38°02' E 023°36'0 0.0
2015-Apr-09 03:33N 38°02' E 023°36'0 0.0
2015-Apr-09 02:33N 38°02' E 023°36'0 0.0
2015-Apr-09 01:33N 38°02' E 023°36'0 0.0
2015-Apr-09 00:33N 38°02' E 023°36'0 0.0
2015-Apr-08 23:33N 38°02' E 023°36'0 0.0
2015-Apr-08 22:33N 38°02' E 023°36'0 0.0
2015-Apr-08 21:33N 38°02' E 023°36'0 0.0
2015-Apr-08 20:29N 38°02' E 023°36'0 0.0
2015-Apr-08 19:33N 38°02' E 023°36'0 0.0
2015-Apr-08 18:29N 38°02' E 023°36'0 0.0
2015-Apr-08 17:32N 38°02' E 023°36'0 0.0
2015-Apr-08 16:33N 38°02' E 023°36'0 0.0
2015-Apr-08 15:33N 38°02' E 023°36'  
Track history (hours):
 
Tides and Currents Weather Stations Pressure Air Temp Water Temp Dewpoint Dewpoint Depression Visibility Wind Speed Wind Dir Waves Ship Positions

Agia Marina

Last reported at 2015-Apr-18 14:30 UTC. Time now 2015-Apr-19 10:58 UTC.
Position N 39°19' E 024°34'.

Length 59 m; draft 2.5 m.

Type: Cargo ship. MMSI: 237042500.

Date/timePositionNaut miles runAvg speedWind from/ knotsBaromVisibWave heightAir tempDewpointWater temp
2015-Apr-18 14:30N 39°19' E 024°34'  
2015-Apr-16 06:33N 37°53' E 023°24'23 3.7
2015-Apr-16 00:20N 37°38' E 023°46'5 6.2
2015-Apr-15 23:33N 37°41' E 023°41'7 6.8
2015-Apr-15 22:33N 37°47' E 023°37'6 6.4
2015-Apr-15 21:33N 37°50' E 023°30'8 5.8
2015-Apr-15 20:12N 37°56' E 023°24'3 5.4
2015-Apr-15 19:33N 37°59' E 023°25'7 6.6
2015-Apr-15 18:33N 38°01' E 023°33'2 0.1
2015-Apr-15 00:33N 38°02' E 023°36'0 0.0
2015-Apr-14 23:33N 38°02' E 023°36'0 0.0
2015-Apr-14 22:33N 38°02' E 023°36'0 0.0
2015-Apr-14 21:33N 38°02' E 023°36'0 0.0
2015-Apr-14 20:33N 38°02' E 023°36'0 0.0
2015-Apr-14 19:33N 38°02' E 023°36'0 0.0
2015-Apr-14 18:33N 38°02' E 023°36'0 0.0
2015-Apr-14 17:33N 38°02' E 023°36'0 0.0
2015-Apr-14 16:33N 38°02' E 023°36'0 0.0
2015-Apr-14 15:33N 38°02' E 023°36'0 0.0
2015-Apr-14 14:33N 38°02' E 023°36'0 0.0
2015-Apr-14 13:33N 38°02' E 023°36'0 0.0
2015-Apr-14 12:33N 38°02' E 023°36'0 0.0
2015-Apr-14 11:33N 38°02' E 023°36'0 0.0
2015-Apr-14 10:33N 38°02' E 023°36'0 0.0
2015-Apr-14 09:33N 38°02' E 023°36'0 0.0
2015-Apr-14 08:33N 38°02' E 023°36'0 0.0
2015-Apr-14 07:33N 38°02' E 023°36'0 0.0
2015-Apr-14 06:32N 38°02' E 023°36'0 0.0
2015-Apr-14 05:33N 38°02' E 023°36'0 0.0
2015-Apr-14 04:33N 38°02' E 023°36'0 0.0
2015-Apr-14 03:32N 38°02' E 023°36'0 0.0
2015-Apr-14 02:33N 38°02' E 023°36'0 0.0
2015-Apr-14 01:33N 38°02' E 023°36'0 0.0
2015-Apr-14 00:33N 38°02' E 023°36'0 0.0
2015-Apr-13 23:33N 38°02' E 023°36'0 0.0
2015-Apr-13 22:30N 38°02' E 023°36'0 0.0
2015-Apr-13 21:31N 38°02' E 023°36'0 0.0
2015-Apr-13 20:33N 38°02' E 023°36'0 0.0
2015-Apr-13 19:33N 38°02' E 023°36'0 0.0
2015-Apr-13 18:33N 38°02' E 023°36'0 0.0
2015-Apr-13 17:33N 38°02' E 023°36'0 0.0
2015-Apr-13 16:33N 38°02' E 023°36'0 0.0
2015-Apr-13 15:33N 38°02' E 023°36'0 0.0
2015-Apr-13 14:33N 38°02' E 023°36'0 0.0
2015-Apr-13 13:33N 38°02' E 023°36'0 0.0
2015-Apr-13 12:33N 38°02' E 023°36'0 0.0
2015-Apr-13 11:33N 38°02' E 023°36'0 0.0
2015-Apr-13 10:33N 38°02' E 023°36'0 0.0
2015-Apr-13 09:33N 38°02' E 023°36'0 0.0
2015-Apr-13 08:33N 38°02' E 023°36'0 0.0
2015-Apr-13 07:33N 38°02' E 023°36'0 0.0
2015-Apr-13 06:33N 38°02' E 023°36'0 0.0
2015-Apr-13 05:33N 38°02' E 023°36'0 0.0
2015-Apr-13 04:33N 38°02' E 023°36'0 0.0
2015-Apr-13 03:33N 38°02' E 023°36'0 0.0
2015-Apr-13 02:33N 38°02' E 023°36'0 0.0
2015-Apr-13 01:33N 38°02' E 023°36'0 0.0
2015-Apr-13 00:32N 38°02' E 023°36'0 0.0
2015-Apr-12 23:33N 38°02' E 023°36'0 0.0
2015-Apr-12 22:33N 38°02' E 023°36'0 0.0
2015-Apr-12 21:33N 38°02' E 023°36'0 0.0
2015-Apr-12 20:33N 38°02' E 023°36'0 0.0
2015-Apr-12 19:33N 38°02' E 023°36'0 0.0
2015-Apr-12 18:33N 38°02' E 023°36'0 0.0
2015-Apr-12 17:33N 38°02' E 023°36'0 0.0
2015-Apr-12 16:33N 38°02' E 023°36'0 0.0
2015-Apr-12 15:33N 38°02' E 023°36'0 0.0
2015-Apr-12 14:33N 38°02' E 023°36'0 0.0
2015-Apr-12 13:33N 38°02' E 023°36'0 0.0
2015-Apr-12 12:33N 38°02' E 023°36'0 0.0
2015-Apr-12 11:33N 38°02' E 023°36'0 0.0
2015-Apr-12 10:33N 38°02' E 023°36'0 0.0
2015-Apr-12 09:33N 38°02' E 023°36'0 0.0
2015-Apr-12 08:33N 38°02' E 023°36'0 0.0
2015-Apr-12 07:32N 38°02' E 023°36'0 0.0
2015-Apr-12 06:33N 38°02' E 023°36'0 0.0
2015-Apr-12 05:33N 38°02' E 023°36'0 0.0
2015-Apr-12 04:33N 38°02' E 023°36'0 0.0
2015-Apr-12 03:33N 38°02' E 023°36'0 0.0
2015-Apr-12 02:33N 38°02' E 023°36'0 0.0
2015-Apr-12 01:33N 38°02' E 023°36'0 0.0
2015-Apr-12 00:33N 38°02' E 023°36'0 0.0
2015-Apr-11 23:32N 38°02' E 023°36'0 0.0
2015-Apr-11 22:33N 38°02' E 023°36'0 0.0
2015-Apr-11 21:33N 38°02' E 023°36'0 0.0
2015-Apr-11 20:33N 38°02' E 023°36'0 0.0
2015-Apr-11 19:33N 38°02' E 023°36'0 0.0
2015-Apr-11 18:33N 38°02' E 023°36'0 0.0
2015-Apr-11 17:33N 38°02' E 023°36'0 0.0
2015-Apr-11 16:32N 38°02' E 023°36'0 0.0
2015-Apr-11 15:33N 38°02' E 023°36'0 0.0
2015-Apr-11 14:32N 38°02' E 023°36'0 0.0
2015-Apr-11 13:33N 38°02' E 023°36'0 0.0
2015-Apr-11 12:32N 38°02' E 023°36'0 0.0
2015-Apr-11 11:33N 38°02' E 023°36'0 0.0
2015-Apr-11 10:33N 38°02' E 023°36'0 0.0
2015-Apr-11 09:33N 38°02' E 023°36'0 0.0
2015-Apr-11 08:33N 38°02' E 023°36'0 0.0
2015-Apr-11 07:33N 38°02' E 023°36'0 0.0
2015-Apr-11 06:33N 38°02' E 023°36'0 0.0
2015-Apr-11 05:33N 38°02' E 023°36'0 0.0
2015-Apr-11 04:33N 38°02' E 023°36'0 0.0
2015-Apr-11 03:33N 38°02' E 023°36'0 0.0
2015-Apr-11 02:33N 38°02' E 023°36'0 0.0
2015-Apr-11 01:33N 38°02' E 023°36'0 0.0
2015-Apr-11 00:33N 38°02' E 023°36'0 0.0
2015-Apr-10 23:33N 38°02' E 023°36'0 0.0
2015-Apr-10 22:33N 38°02' E 023°36'0 0.0
2015-Apr-10 21:33N 38°02' E 023°36'0 0.0
2015-Apr-10 20:33N 38°02' E 023°36'0 0.0
2015-Apr-10 19:33N 38°02' E 023°36'0 0.0
2015-Apr-10 18:33N 38°02' E 023°36'0 0.0
2015-Apr-10 17:32N 38°02' E 023°36'0 0.0
2015-Apr-10 16:33N 38°02' E 023°36'0 0.0
2015-Apr-10 15:33N 38°02' E 023°36'0 0.0
2015-Apr-10 14:33N 38°02' E 023°36'0 0.0
2015-Apr-10 13:33N 38°02' E 023°36'0 0.0
2015-Apr-10 12:33N 38°02' E 023°36'0 0.0
2015-Apr-10 11:33N 38°02' E 023°36'0 0.0
2015-Apr-10 10:33N 38°02' E 023°36'0 0.0
2015-Apr-10 09:32N 38°02' E 023°36'0 0.0
2015-Apr-10 08:33N 38°02' E 023°36'0 0.0
2015-Apr-10 07:33N 38°02' E 023°36'0 0.0
2015-Apr-10 06:33N 38°02' E 023°36'0 0.0
2015-Apr-10 05:33N 38°02' E 023°36'0 0.0
2015-Apr-10 04:33N 38°02' E 023°36'0 0.0
2015-Apr-10 03:33N 38°02' E 023°36'0 0.0
2015-Apr-10 02:33N 38°02' E 023°36'0 0.0
2015-Apr-10 01:33N 38°02' E 023°36'0 0.0
2015-Apr-10 00:33N 38°02' E 023°36'0 0.0
2015-Apr-09 23:33N 38°02' E 023°36'0 0.0
2015-Apr-09 22:33N 38°02' E 023°36'0 0.0
2015-Apr-09 21:33N 38°02' E 023°36'0 0.0
2015-Apr-09 20:33N 38°02' E 023°36'0 0.0
2015-Apr-09 19:33N 38°02' E 023°36'0 0.0
2015-Apr-09 18:33N 38°02' E 023°36'0 0.0
2015-Apr-09 17:33N 38°02' E 023°36'0 0.0
2015-Apr-09 16:33N 38°02' E 023°36'0 0.0
2015-Apr-09 15:33N 38°02' E 023°36'0 0.0
2015-Apr-09 14:33N 38°02' E 023°36'0 0.0
2015-Apr-09 13:33N 38°02' E 023°36'0 0.0
2015-Apr-09 12:33N 38°02' E 023°36'0 0.0
2015-Apr-09 11:33N 38°02' E 023°36'0 0.0
2015-Apr-09 10:33N 38°02' E 023°36'0 0.0
2015-Apr-09 09:30N 38°02' E 023°36'0 0.0
2015-Apr-09 08:32N 38°02' E 023°36'0 0.0
2015-Apr-09 07:33N 38°02' E 023°36'0 0.0
2015-Apr-09 06:33N 38°02' E 023°36'0 0.0
2015-Apr-09 05:33N 38°02' E 023°36'0 0.0
2015-Apr-09 04:33N 38°02' E 023°36'0 0.0
2015-Apr-09 03:33N 38°02' E 023°36'0 0.0
2015-Apr-09 02:33N 38°02' E 023°36'0 0.0
2015-Apr-09 01:33N 38°02' E 023°36'0 0.0
2015-Apr-09 00:33N 38°02' E 023°36'0 0.0
2015-Apr-08 23:33N 38°02' E 023°36'0 0.0
2015-Apr-08 22:33N 38°02' E 023°36'0 0.0
2015-Apr-08 21:33N 38°02' E 023°36'0 0.0
2015-Apr-08 20:29N 38°02' E 023°36'0 0.0
2015-Apr-08 19:33N 38°02' E 023°36'0 0.0
2015-Apr-08 18:29N 38°02' E 023°36'0 0.0
2015-Apr-08 17:32N 38°02' E 023°36'0 0.0
2015-Apr-08 16:33N 38°02' E 023°36'0 0.0
2015-Apr-08 15:33N 38°02' E 023°36'  

Dump ship's entire track history